sensor_id;sensor_type;location;lat;lon;timestamp;P1;durP1;ratioP1;P2;durP2;ratioP2
6195;SDS011;3131;42.630;23.382;2023-04-16T00:00:09;4.80;;;2.67;;
6195;SDS011;3131;42.630;23.382;2023-04-16T00:02:37;7.27;;;2.73;;
6195;SDS011;3131;42.630;23.382;2023-04-16T00:05:06;5.23;;;3.13;;
6195;SDS011;3131;42.630;23.382;2023-04-16T00:07:33;6.47;;;2.80;;
6195;SDS011;3131;42.630;23.382;2023-04-16T00:10:01;4.73;;;3.10;;
6195;SDS011;3131;42.630;23.382;2023-04-16T00:12:29;8.97;;;3.13;;
6195;SDS011;3131;42.630;23.382;2023-04-16T00:14:56;4.43;;;2.33;;
6195;SDS011;3131;42.630;23.382;2023-04-16T00:17:24;4.30;;;1.80;;
6195;SDS011;3131;42.630;23.382;2023-04-16T00:19:52;6.97;;;3.07;;
6195;SDS011;3131;42.630;23.382;2023-04-16T00:22:19;4.07;;;2.53;;
6195;SDS011;3131;42.630;23.382;2023-04-16T00:24:47;2.43;;;2.10;;
6195;SDS011;3131;42.630;23.382;2023-04-16T00:27:15;2.87;;;2.20;;
6195;SDS011;3131;42.630;23.382;2023-04-16T00:29:42;5.07;;;2.57;;
6195;SDS011;3131;42.630;23.382;2023-04-16T00:32:10;2.03;;;1.67;;
6195;SDS011;3131;42.630;23.382;2023-04-16T00:34:38;2.03;;;1.80;;
6195;SDS011;3131;42.630;23.382;2023-04-16T00:37:06;7.17;;;2.77;;
6195;SDS011;3131;42.630;23.382;2023-04-16T00:39:33;5.97;;;2.40;;
6195;SDS011;3131;42.630;23.382;2023-04-16T00:42:01;4.63;;;2.40;;
6195;SDS011;3131;42.630;23.382;2023-04-16T00:44:29;5.60;;;2.60;;
6195;SDS011;3131;42.630;23.382;2023-04-16T00:46:58;7.70;;;2.70;;
6195;SDS011;3131;42.630;23.382;2023-04-16T00:49:26;3.13;;;2.20;;
6195;SDS011;3131;42.630;23.382;2023-04-16T00:51:54;3.33;;;2.43;;
6195;SDS011;3131;42.630;23.382;2023-04-16T00:54:23;6.10;;;1.90;;
6195;SDS011;3131;42.630;23.382;2023-04-16T00:56:51;3.67;;;2.00;;
6195;SDS011;3131;42.630;23.382;2023-04-16T00:59:19;3.20;;;2.00;;
6195;SDS011;3131;42.630;23.382;2023-04-16T01:01:46;9.17;;;2.27;;
6195;SDS011;3131;42.630;23.382;2023-04-16T01:04:14;3.83;;;2.27;;
6195;SDS011;3131;42.630;23.382;2023-04-16T01:06:42;3.03;;;2.30;;
6195;SDS011;3131;42.630;23.382;2023-04-16T01:09:09;5.20;;;2.63;;
6195;SDS011;3131;42.630;23.382;2023-04-16T01:11:38;3.33;;;2.33;;
6195;SDS011;3131;42.630;23.382;2023-04-16T01:14:05;4.23;;;2.63;;
6195;SDS011;3131;42.630;23.382;2023-04-16T01:16:33;2.47;;;1.87;;
6195;SDS011;3131;42.630;23.382;2023-04-16T01:19:01;4.43;;;2.00;;
6195;SDS011;3131;42.630;23.382;2023-04-16T01:21:29;6.07;;;2.60;;
6195;SDS011;3131;42.630;23.382;2023-04-16T01:23:57;3.83;;;3.00;;
6195;SDS011;3131;42.630;23.382;2023-04-16T01:26:26;2.47;;;2.27;;
6195;SDS011;3131;42.630;23.382;2023-04-16T01:28:54;5.67;;;2.20;;
6195;SDS011;3131;42.630;23.382;2023-04-16T01:31:22;4.97;;;2.30;;
6195;SDS011;3131;42.630;23.382;2023-04-16T01:33:50;2.13;;;1.93;;
6195;SDS011;3131;42.630;23.382;2023-04-16T01:36:18;5.60;;;2.57;;
6195;SDS011;3131;42.630;23.382;2023-04-16T01:38:46;2.63;;;2.10;;
6195;SDS011;3131;42.630;23.382;2023-04-16T01:41:13;5.57;;;2.03;;
6195;SDS011;3131;42.630;23.382;2023-04-16T01:43:41;3.90;;;2.17;;
6195;SDS011;3131;42.630;23.382;2023-04-16T01:46:11;2.30;;;2.10;;
6195;SDS011;3131;42.630;23.382;2023-04-16T01:48:38;4.80;;;2.20;;
6195;SDS011;3131;42.630;23.382;2023-04-16T01:51:06;2.50;;;2.30;;
6195;SDS011;3131;42.630;23.382;2023-04-16T01:53:35;3.10;;;2.33;;
6195;SDS011;3131;42.630;23.382;2023-04-16T01:56:04;5.20;;;2.67;;
6195;SDS011;3131;42.630;23.382;2023-04-16T01:58:32;2.97;;;2.30;;
6195;SDS011;3131;42.630;23.382;2023-04-16T02:01:00;3.77;;;2.70;;
6195;SDS011;3131;42.630;23.382;2023-04-16T02:03:28;7.10;;;2.70;;
6195;SDS011;3131;42.630;23.382;2023-04-16T02:05:56;4.03;;;2.97;;
6195;SDS011;3131;42.630;23.382;2023-04-16T02:08:24;1.90;;;1.77;;
6195;SDS011;3131;42.630;23.382;2023-04-16T02:10:52;2.10;;;1.90;;
6195;SDS011;3131;42.630;23.382;2023-04-16T02:13:21;4.80;;;2.03;;
6195;SDS011;3131;42.630;23.382;2023-04-16T02:15:51;3.20;;;2.33;;
6195;SDS011;3131;42.630;23.382;2023-04-16T02:18:18;4.33;;;2.00;;
6195;SDS011;3131;42.630;23.382;2023-04-16T02:20:46;1.80;;;1.70;;
6195;SDS011;3131;42.630;23.382;2023-04-16T02:23:14;3.87;;;2.50;;
6195;SDS011;3131;42.630;23.382;2023-04-16T02:25:43;6.47;;;2.80;;
6195;SDS011;3131;42.630;23.382;2023-04-16T02:28:11;4.57;;;2.57;;
6195;SDS011;3131;42.630;23.382;2023-04-16T02:30:39;6.63;;;2.80;;
6195;SDS011;3131;42.630;23.382;2023-04-16T02:33:08;6.10;;;2.60;;
6195;SDS011;3131;42.630;23.382;2023-04-16T02:35:36;4.80;;;2.63;;
6195;SDS011;3131;42.630;23.382;2023-04-16T02:38:04;5.37;;;2.60;;
6195;SDS011;3131;42.630;23.382;2023-04-16T02:40:32;3.43;;;2.87;;
6195;SDS011;3131;42.630;23.382;2023-04-16T02:42:59;4.80;;;2.77;;
6195;SDS011;3131;42.630;23.382;2023-04-16T02:45:27;5.93;;;2.90;;
6195;SDS011;3131;42.630;23.382;2023-04-16T02:47:56;9.33;;;2.47;;
6195;SDS011;3131;42.630;23.382;2023-04-16T02:50:24;4.17;;;2.70;;
6195;SDS011;3131;42.630;23.382;2023-04-16T02:52:52;3.10;;;2.60;;
6195;SDS011;3131;42.630;23.382;2023-04-16T02:55:19;5.57;;;2.70;;
6195;SDS011;3131;42.630;23.382;2023-04-16T02:57:47;7.80;;;2.50;;
6195;SDS011;3131;42.630;23.382;2023-04-16T03:00:15;3.67;;;2.87;;
6195;SDS011;3131;42.630;23.382;2023-04-16T03:02:43;4.33;;;2.67;;
6195;SDS011;3131;42.630;23.382;2023-04-16T03:05:10;4.27;;;2.70;;
6195;SDS011;3131;42.630;23.382;2023-04-16T03:07:38;2.40;;;2.20;;
6195;SDS011;3131;42.630;23.382;2023-04-16T03:10:07;5.07;;;2.97;;
6195;SDS011;3131;42.630;23.382;2023-04-16T03:12:35;6.10;;;2.83;;
6195;SDS011;3131;42.630;23.382;2023-04-16T03:15:03;3.97;;;2.50;;
6195;SDS011;3131;42.630;23.382;2023-04-16T03:17:31;3.67;;;2.60;;
6195;SDS011;3131;42.630;23.382;2023-04-16T03:19:59;7.10;;;2.50;;
6195;SDS011;3131;42.630;23.382;2023-04-16T03:22:26;5.47;;;3.17;;
6195;SDS011;3131;42.630;23.382;2023-04-16T03:24:54;3.83;;;2.80;;
6195;SDS011;3131;42.630;23.382;2023-04-16T03:27:22;5.80;;;2.57;;
6195;SDS011;3131;42.630;23.382;2023-04-16T03:29:50;7.27;;;2.83;;
6195;SDS011;3131;42.630;23.382;2023-04-16T03:32:18;3.30;;;2.37;;
6195;SDS011;3131;42.630;23.382;2023-04-16T03:34:46;3.00;;;2.10;;
6195;SDS011;3131;42.630;23.382;2023-04-16T03:37:14;4.27;;;2.80;;
6195;SDS011;3131;42.630;23.382;2023-04-16T03:39:42;2.47;;;2.27;;
6195;SDS011;3131;42.630;23.382;2023-04-16T03:42:09;2.70;;;2.43;;
6195;SDS011;3131;42.630;23.382;2023-04-16T03:44:37;5.93;;;2.47;;
6195;SDS011;3131;42.630;23.382;2023-04-16T03:47:05;2.80;;;2.07;;
6195;SDS011;3131;42.630;23.382;2023-04-16T03:49:33;2.83;;;2.50;;
6195;SDS011;3131;42.630;23.382;2023-04-16T03:52:00;5.13;;;2.60;;
6195;SDS011;3131;42.630;23.382;2023-04-16T03:54:28;5.17;;;2.40;;
6195;SDS011;3131;42.630;23.382;2023-04-16T03:56:56;4.43;;;2.93;;
6195;SDS011;3131;42.630;23.382;2023-04-16T03:59:23;4.83;;;2.67;;
6195;SDS011;3131;42.630;23.382;2023-04-16T04:01:51;7.67;;;2.43;;
6195;SDS011;3131;42.630;23.382;2023-04-16T04:04:19;3.13;;;2.43;;
6195;SDS011;3131;42.630;23.382;2023-04-16T04:06:47;2.83;;;2.20;;
6195;SDS011;3131;42.630;23.382;2023-04-16T04:09:14;4.07;;;2.27;;
6195;SDS011;3131;42.630;23.382;2023-04-16T04:11:42;4.60;;;2.73;;
6195;SDS011;3131;42.630;23.382;2023-04-16T04:14:10;5.23;;;2.90;;
6195;SDS011;3131;42.630;23.382;2023-04-16T04:17:59;4.67;;;2.60;;
6195;SDS011;3131;42.630;23.382;2023-04-16T04:20:28;2.97;;;2.60;;
6195;SDS011;3131;42.630;23.382;2023-04-16T04:22:55;6.23;;;3.13;;
6195;SDS011;3131;42.630;23.382;2023-04-16T04:25:24;6.40;;;3.03;;
6195;SDS011;3131;42.630;23.382;2023-04-16T04:27:53;6.83;;;3.17;;
6195;SDS011;3131;42.630;23.382;2023-04-16T04:30:21;5.37;;;2.80;;
6195;SDS011;3131;42.630;23.382;2023-04-16T04:32:51;3.70;;;2.40;;
6195;SDS011;3131;42.630;23.382;2023-04-16T04:35:20;4.33;;;2.60;;
6195;SDS011;3131;42.630;23.382;2023-04-16T04:37:50;3.37;;;2.40;;
6195;SDS011;3131;42.630;23.382;2023-04-16T04:40:19;7.03;;;3.20;;
6195;SDS011;3131;42.630;23.382;2023-04-16T04:42:49;3.13;;;2.80;;
6195;SDS011;3131;42.630;23.382;2023-04-16T04:45:18;6.63;;;4.27;;
6195;SDS011;3131;42.630;23.382;2023-04-16T04:47:50;6.40;;;3.23;;
6195;SDS011;3131;42.630;23.382;2023-04-16T04:50:19;4.07;;;2.93;;
6195;SDS011;3131;42.630;23.382;2023-04-16T04:52:49;3.60;;;2.87;;
6195;SDS011;3131;42.630;23.382;2023-04-16T04:55:18;4.83;;;2.53;;
6195;SDS011;3131;42.630;23.382;2023-04-16T05:00:24;5.50;;;3.10;;
6195;SDS011;3131;42.630;23.382;2023-04-16T05:02:52;8.10;;;3.63;;
6195;SDS011;3131;42.630;23.382;2023-04-16T05:05:20;6.17;;;2.97;;
6195;SDS011;3131;42.630;23.382;2023-04-16T05:07:48;5.40;;;3.17;;
6195;SDS011;3131;42.630;23.382;2023-04-16T05:10:17;4.53;;;3.00;;
6195;SDS011;3131;42.630;23.382;2023-04-16T05:12:45;7.20;;;2.73;;
6195;SDS011;3131;42.630;23.382;2023-04-16T05:15:13;4.77;;;2.93;;
6195;SDS011;3131;42.630;23.382;2023-04-16T05:17:43;9.33;;;3.00;;
6195;SDS011;3131;42.630;23.382;2023-04-16T05:20:12;3.80;;;2.77;;
6195;SDS011;3131;42.630;23.382;2023-04-16T05:22:40;5.03;;;2.80;;
6195;SDS011;3131;42.630;23.382;2023-04-16T05:25:08;7.53;;;3.10;;
6195;SDS011;3131;42.630;23.382;2023-04-16T05:27:36;4.00;;;2.80;;
6195;SDS011;3131;42.630;23.382;2023-04-16T05:30:16;4.17;;;3.30;;
6195;SDS011;3131;42.630;23.382;2023-04-16T05:32:44;3.77;;;2.77;;
6195;SDS011;3131;42.630;23.382;2023-04-16T05:35:13;7.13;;;3.80;;
6195;SDS011;3131;42.630;23.382;2023-04-16T05:37:43;8.40;;;3.97;;
6195;SDS011;3131;42.630;23.382;2023-04-16T05:42:52;5.77;;;3.27;;
6195;SDS011;3131;42.630;23.382;2023-04-16T05:45:22;5.73;;;3.23;;
6195;SDS011;3131;42.630;23.382;2023-04-16T05:47:51;11.17;;;3.70;;
6195;SDS011;3131;42.630;23.382;2023-04-16T05:50:19;4.73;;;2.97;;
6195;SDS011;3131;42.630;23.382;2023-04-16T05:52:47;7.73;;;3.97;;
6195;SDS011;3131;42.630;23.382;2023-04-16T05:55:15;8.17;;;3.93;;
6195;SDS011;3131;42.630;23.382;2023-04-16T05:57:42;8.53;;;3.10;;
6195;SDS011;3131;42.630;23.382;2023-04-16T06:00:11;5.13;;;3.03;;
6195;SDS011;3131;42.630;23.382;2023-04-16T06:02:39;9.13;;;4.07;;
6195;SDS011;3131;42.630;23.382;2023-04-16T06:05:08;7.07;;;3.50;;
6195;SDS011;3131;42.630;23.382;2023-04-16T06:07:36;6.43;;;3.63;;
6195;SDS011;3131;42.630;23.382;2023-04-16T06:10:05;9.70;;;3.43;;
6195;SDS011;3131;42.630;23.382;2023-04-16T06:12:33;9.50;;;4.23;;
6195;SDS011;3131;42.630;23.382;2023-04-16T06:15:01;9.07;;;4.20;;
6195;SDS011;3131;42.630;23.382;2023-04-16T06:17:29;5.03;;;2.93;;
6195;SDS011;3131;42.630;23.382;2023-04-16T06:19:57;4.63;;;3.07;;
6195;SDS011;3131;42.630;23.382;2023-04-16T06:22:24;5.93;;;2.70;;
6195;SDS011;3131;42.630;23.382;2023-04-16T06:24:52;6.67;;;3.53;;
6195;SDS011;3131;42.630;23.382;2023-04-16T06:27:20;7.33;;;3.93;;
6195;SDS011;3131;42.630;23.382;2023-04-16T06:29:48;8.17;;;3.73;;
6195;SDS011;3131;42.630;23.382;2023-04-16T06:32:16;7.40;;;3.30;;
6195;SDS011;3131;42.630;23.382;2023-04-16T06:34:44;7.00;;;3.50;;
6195;SDS011;3131;42.630;23.382;2023-04-16T06:39:57;7.70;;;3.60;;
6195;SDS011;3131;42.630;23.382;2023-04-16T06:42:26;5.63;;;3.40;;
6195;SDS011;3131;42.630;23.382;2023-04-16T06:44:56;10.03;;;3.83;;
6195;SDS011;3131;42.630;23.382;2023-04-16T06:47:26;7.73;;;3.70;;
6195;SDS011;3131;42.630;23.382;2023-04-16T06:49:55;4.90;;;3.50;;
6195;SDS011;3131;42.630;23.382;2023-04-16T06:52:24;6.87;;;4.20;;
6195;SDS011;3131;42.630;23.382;2023-04-16T06:54:53;6.27;;;3.50;;
6195;SDS011;3131;42.630;23.382;2023-04-16T06:57:23;9.33;;;4.03;;
6195;SDS011;3131;42.630;23.382;2023-04-16T06:59:53;6.37;;;3.70;;
6195;SDS011;3131;42.630;23.382;2023-04-16T07:02:22;6.00;;;3.30;;
6195;SDS011;3131;42.630;23.382;2023-04-16T07:04:52;7.73;;;4.37;;
6195;SDS011;3131;42.630;23.382;2023-04-16T07:07:21;6.67;;;3.70;;
6195;SDS011;3131;42.630;23.382;2023-04-16T07:09:51;8.60;;;4.53;;
6195;SDS011;3131;42.630;23.382;2023-04-16T07:12:20;11.60;;;6.00;;
6195;SDS011;3131;42.630;23.382;2023-04-16T07:14:50;9.57;;;4.30;;
6195;SDS011;3131;42.630;23.382;2023-04-16T07:17:19;6.53;;;3.13;;
6195;SDS011;3131;42.630;23.382;2023-04-16T07:22:33;7.10;;;3.97;;
6195;SDS011;3131;42.630;23.382;2023-04-16T07:25:03;6.93;;;4.00;;
6195;SDS011;3131;42.630;23.382;2023-04-16T07:27:34;6.00;;;3.57;;
6195;SDS011;3131;42.630;23.382;2023-04-16T07:30:15;6.53;;;3.53;;
6195;SDS011;3131;42.630;23.382;2023-04-16T07:32:44;5.77;;;3.50;;
6195;SDS011;3131;42.630;23.382;2023-04-16T07:35:25;9.03;;;4.73;;
6195;SDS011;3131;42.630;23.382;2023-04-16T07:37:55;7.67;;;3.53;;
6195;SDS011;3131;42.630;23.382;2023-04-16T07:40:42;9.60;;;3.77;;
6195;SDS011;3131;42.630;23.382;2023-04-16T07:43:12;7.67;;;3.87;;
6195;SDS011;3131;42.630;23.382;2023-04-16T07:45:42;13.03;;;4.63;;
6195;SDS011;3131;42.630;23.382;2023-04-16T07:48:11;11.70;;;4.83;;
6195;SDS011;3131;42.630;23.382;2023-04-16T07:50:40;6.47;;;3.40;;
6195;SDS011;3131;42.630;23.382;2023-04-16T07:53:10;8.23;;;4.30;;
6195;SDS011;3131;42.630;23.382;2023-04-16T07:55:39;11.43;;;4.47;;
6195;SDS011;3131;42.630;23.382;2023-04-16T08:00:47;11.97;;;5.20;;
6195;SDS011;3131;42.630;23.382;2023-04-16T08:03:16;10.27;;;4.50;;
6195;SDS011;3131;42.630;23.382;2023-04-16T08:05:46;7.60;;;3.70;;
6195;SDS011;3131;42.630;23.382;2023-04-16T08:08:15;8.70;;;3.43;;
6195;SDS011;3131;42.630;23.382;2023-04-16T08:10:44;5.17;;;3.10;;
6195;SDS011;3131;42.630;23.382;2023-04-16T08:13:14;6.63;;;4.47;;
6195;SDS011;3131;42.630;23.382;2023-04-16T08:15:43;4.17;;;2.83;;
6195;SDS011;3131;42.630;23.382;2023-04-16T08:18:24;9.43;;;3.23;;
6195;SDS011;3131;42.630;23.382;2023-04-16T08:20:54;9.60;;;4.63;;
6195;SDS011;3131;42.630;23.382;2023-04-16T08:23:34;5.77;;;2.97;;
6195;SDS011;3131;42.630;23.382;2023-04-16T08:26:04;7.20;;;3.70;;
6195;SDS011;3131;42.630;23.382;2023-04-16T08:28:51;8.13;;;3.50;;
6195;SDS011;3131;42.630;23.382;2023-04-16T08:31:20;8.33;;;3.27;;
6195;SDS011;3131;42.630;23.382;2023-04-16T08:33:50;7.90;;;3.60;;
6195;SDS011;3131;42.630;23.382;2023-04-16T08:36:19;8.00;;;3.40;;
6195;SDS011;3131;42.630;23.382;2023-04-16T08:38:49;8.73;;;3.20;;
6195;SDS011;3131;42.630;23.382;2023-04-16T08:41:18;7.23;;;2.70;;
6195;SDS011;3131;42.630;23.382;2023-04-16T08:44:00;5.90;;;3.23;;
6195;SDS011;3131;42.630;23.382;2023-04-16T08:46:32;5.43;;;2.70;;
6195;SDS011;3131;42.630;23.382;2023-04-16T08:49:04;4.87;;;2.70;;
6195;SDS011;3131;42.630;23.382;2023-04-16T08:51:34;5.27;;;2.73;;
6195;SDS011;3131;42.630;23.382;2023-04-16T08:56:41;5.57;;;2.60;;
6195;SDS011;3131;42.630;23.382;2023-04-16T08:59:11;6.23;;;2.60;;
6195;SDS011;3131;42.630;23.382;2023-04-16T09:01:40;7.03;;;3.47;;
6195;SDS011;3131;42.630;23.382;2023-04-16T09:04:13;10.10;;;3.60;;
6195;SDS011;3131;42.630;23.382;2023-04-16T09:06:43;7.23;;;2.60;;
6195;SDS011;3131;42.630;23.382;2023-04-16T09:09:15;6.03;;;3.17;;
6195;SDS011;3131;42.630;23.382;2023-04-16T09:11:49;7.20;;;3.20;;
6195;SDS011;3131;42.630;23.382;2023-04-16T09:14:19;8.33;;;3.27;;
6195;SDS011;3131;42.630;23.382;2023-04-16T09:16:49;6.17;;;3.17;;
6195;SDS011;3131;42.630;23.382;2023-04-16T09:19:31;6.50;;;2.70;;
6195;SDS011;3131;42.630;23.382;2023-04-16T09:22:01;6.30;;;2.70;;
6195;SDS011;3131;42.630;23.382;2023-04-16T09:24:41;11.40;;;2.97;;
6195;SDS011;3131;42.630;23.382;2023-04-16T09:27:11;6.70;;;3.07;;
6195;SDS011;3131;42.630;23.382;2023-04-16T09:29:58;11.10;;;3.20;;
6195;SDS011;3131;42.630;23.382;2023-04-16T09:32:27;5.40;;;2.87;;
6195;SDS011;3131;42.630;23.382;2023-04-16T09:34:57;4.20;;;2.57;;
6195;SDS011;3131;42.630;23.382;2023-04-16T09:37:37;8.13;;;3.43;;
6195;SDS011;3131;42.630;23.382;2023-04-16T09:40:07;6.67;;;3.10;;
6195;SDS011;3131;42.630;23.382;2023-04-16T09:42:48;7.90;;;3.00;;
6195;SDS011;3131;42.630;23.382;2023-04-16T09:45:18;6.23;;;3.07;;
6195;SDS011;3131;42.630;23.382;2023-04-16T09:48:02;5.73;;;2.90;;
6195;SDS011;3131;42.630;23.382;2023-04-16T09:53:11;12.77;;;4.33;;
6195;SDS011;3131;42.630;23.382;2023-04-16T09:58:26;4.70;;;2.80;;
6195;SDS011;3131;42.630;23.382;2023-04-16T10:00:56;6.03;;;2.50;;
6195;SDS011;3131;42.630;23.382;2023-04-16T10:03:31;7.20;;;2.97;;
6195;SDS011;3131;42.630;23.382;2023-04-16T10:06:02;6.50;;;2.97;;
6195;SDS011;3131;42.630;23.382;2023-04-16T10:08:35;8.63;;;2.90;;
6195;SDS011;3131;42.630;23.382;2023-04-16T10:11:06;8.73;;;3.10;;
6195;SDS011;3131;42.630;23.382;2023-04-16T10:13:36;6.10;;;2.87;;
6195;SDS011;3131;42.630;23.382;2023-04-16T10:16:06;6.00;;;2.67;;
6195;SDS011;3131;42.630;23.382;2023-04-16T10:18:37;10.57;;;3.30;;
6195;SDS011;3131;42.630;23.382;2023-04-16T10:21:08;5.23;;;2.90;;
6195;SDS011;3131;42.630;23.382;2023-04-16T10:23:38;6.63;;;2.80;;
6195;SDS011;3131;42.630;23.382;2023-04-16T10:26:08;6.70;;;2.93;;
6195;SDS011;3131;42.630;23.382;2023-04-16T10:28:38;10.77;;;3.00;;
6195;SDS011;3131;42.630;23.382;2023-04-16T10:31:08;6.43;;;3.00;;
6195;SDS011;3131;42.630;23.382;2023-04-16T10:33:39;14.57;;;4.10;;
6195;SDS011;3131;42.630;23.382;2023-04-16T10:36:11;4.93;;;2.70;;
6195;SDS011;3131;42.630;23.382;2023-04-16T10:38:45;7.17;;;3.13;;
6195;SDS011;3131;42.630;23.382;2023-04-16T10:41:30;5.83;;;2.50;;
6195;SDS011;3131;42.630;23.382;2023-04-16T10:44:06;6.50;;;2.90;;
6195;SDS011;3131;42.630;23.382;2023-04-16T10:46:36;8.13;;;2.93;;
6195;SDS011;3131;42.630;23.382;2023-04-16T10:49:13;3.23;;;2.53;;
6195;SDS011;3131;42.630;23.382;2023-04-16T10:51:51;5.87;;;2.40;;
6195;SDS011;3131;42.630;23.382;2023-04-16T10:57:02;4.33;;;2.50;;
6195;SDS011;3131;42.630;23.382;2023-04-16T11:02:18;5.33;;;2.60;;
6195;SDS011;3131;42.630;23.382;2023-04-16T11:04:49;7.20;;;2.27;;
6195;SDS011;3131;42.630;23.382;2023-04-16T11:09:57;4.80;;;2.47;;
6195;SDS011;3131;42.630;23.382;2023-04-16T11:12:32;6.80;;;2.47;;
6195;SDS011;3131;42.630;23.382;2023-04-16T11:15:03;6.43;;;2.47;;
6195;SDS011;3131;42.630;23.382;2023-04-16T11:17:50;7.73;;;3.10;;
6195;SDS011;3131;42.630;23.382;2023-04-16T11:20:20;8.00;;;2.30;;
6195;SDS011;3131;42.630;23.382;2023-04-16T11:25:30;7.43;;;2.40;;
6195;SDS011;3131;42.630;23.382;2023-04-16T11:28:00;4.30;;;2.10;;
6195;SDS011;3131;42.630;23.382;2023-04-16T11:30:47;4.97;;;2.20;;
6195;SDS011;3131;42.630;23.382;2023-04-16T11:33:17;4.53;;;2.30;;
6195;SDS011;3131;42.630;23.382;2023-04-16T11:35:46;3.17;;;2.00;;
6195;SDS011;3131;42.630;23.382;2023-04-16T11:38:32;4.67;;;1.93;;
6195;SDS011;3131;42.630;23.382;2023-04-16T11:41:03;4.30;;;2.30;;
6195;SDS011;3131;42.630;23.382;2023-04-16T11:43:32;6.43;;;2.50;;
6195;SDS011;3131;42.630;23.382;2023-04-16T11:46:02;4.83;;;2.07;;
6195;SDS011;3131;42.630;23.382;2023-04-16T11:48:48;5.73;;;1.97;;
6195;SDS011;3131;42.630;23.382;2023-04-16T11:51:19;8.30;;;2.57;;
6195;SDS011;3131;42.630;23.382;2023-04-16T11:53:49;5.33;;;2.60;;
6195;SDS011;3131;42.630;23.382;2023-04-16T11:56:32;5.57;;;2.33;;
6195;SDS011;3131;42.630;23.382;2023-04-16T11:59:06;7.67;;;2.83;;
6195;SDS011;3131;42.630;23.382;2023-04-16T12:01:37;4.53;;;2.20;;
6195;SDS011;3131;42.630;23.382;2023-04-16T12:04:08;4.57;;;3.03;;
6195;SDS011;3131;42.630;23.382;2023-04-16T12:07:04;5.67;;;2.27;;
6195;SDS011;3131;42.630;23.382;2023-04-16T12:09:37;4.67;;;2.30;;
6195;SDS011;3131;42.630;23.382;2023-04-16T12:12:24;7.17;;;2.43;;
6195;SDS011;3131;42.630;23.382;2023-04-16T12:14:55;4.30;;;2.40;;
6195;SDS011;3131;42.630;23.382;2023-04-16T12:17:27;4.97;;;2.60;;
6195;SDS011;3131;42.630;23.382;2023-04-16T12:19:57;6.43;;;2.33;;
6195;SDS011;3131;42.630;23.382;2023-04-16T12:22:29;6.87;;;2.70;;
6195;SDS011;3131;42.630;23.382;2023-04-16T12:25:10;6.40;;;2.23;;
6195;SDS011;3131;42.630;23.382;2023-04-16T12:27:42;16.00;;;3.40;;
6195;SDS011;3131;42.630;23.382;2023-04-16T12:30:28;5.00;;;2.73;;
6195;SDS011;3131;42.630;23.382;2023-04-16T12:33:13;9.37;;;2.90;;
6195;SDS011;3131;42.630;23.382;2023-04-16T12:35:51;5.47;;;2.73;;
6195;SDS011;3131;42.630;23.382;2023-04-16T12:40:59;5.83;;;2.80;;
6195;SDS011;3131;42.630;23.382;2023-04-16T12:43:30;4.93;;;2.90;;
6195;SDS011;3131;42.630;23.382;2023-04-16T12:46:00;5.50;;;3.20;;
6195;SDS011;3131;42.630;23.382;2023-04-16T12:48:29;3.63;;;2.40;;
6195;SDS011;3131;42.630;23.382;2023-04-16T12:50:59;4.67;;;2.93;;
6195;SDS011;3131;42.630;23.382;2023-04-16T12:53:28;6.70;;;3.00;;
6195;SDS011;3131;42.630;23.382;2023-04-16T12:55:57;4.40;;;2.60;;
6195;SDS011;3131;42.630;23.382;2023-04-16T12:58:44;6.10;;;2.90;;
6195;SDS011;3131;42.630;23.382;2023-04-16T13:01:15;7.23;;;2.80;;
6195;SDS011;3131;42.630;23.382;2023-04-16T13:03:44;5.37;;;3.17;;
6195;SDS011;3131;42.630;23.382;2023-04-16T13:06:14;6.43;;;2.77;;
6195;SDS011;3131;42.630;23.382;2023-04-16T13:08:44;4.90;;;2.57;;
6195;SDS011;3131;42.630;23.382;2023-04-16T13:11:13;6.13;;;2.57;;
6195;SDS011;3131;42.630;23.382;2023-04-16T13:13:54;4.63;;;2.60;;
6195;SDS011;3131;42.630;23.382;2023-04-16T13:16:23;6.00;;;2.80;;
6195;SDS011;3131;42.630;23.382;2023-04-16T13:18:53;7.20;;;2.83;;
6195;SDS011;3131;42.630;23.382;2023-04-16T13:21:22;7.83;;;2.83;;
6195;SDS011;3131;42.630;23.382;2023-04-16T13:23:52;7.23;;;2.57;;
6195;SDS011;3131;42.630;23.382;2023-04-16T13:26:21;3.47;;;2.30;;
6195;SDS011;3131;42.630;23.382;2023-04-16T13:28:51;2.57;;;2.20;;
6195;SDS011;3131;42.630;23.382;2023-04-16T13:31:20;6.03;;;3.73;;
6195;SDS011;3131;42.630;23.382;2023-04-16T13:33:49;4.93;;;2.33;;
6195;SDS011;3131;42.630;23.382;2023-04-16T13:36:18;5.03;;;2.47;;
6195;SDS011;3131;42.630;23.382;2023-04-16T13:38:48;6.60;;;2.33;;
6195;SDS011;3131;42.630;23.382;2023-04-16T13:41:17;8.77;;;2.73;;
6195;SDS011;3131;42.630;23.382;2023-04-16T13:43:46;2.33;;;1.93;;
6195;SDS011;3131;42.630;23.382;2023-04-16T13:46:15;2.93;;;2.10;;
6195;SDS011;3131;42.630;23.382;2023-04-16T13:49:02;2.47;;;2.13;;
6195;SDS011;3131;42.630;23.382;2023-04-16T13:51:31;7.50;;;2.37;;
6195;SDS011;3131;42.630;23.382;2023-04-16T13:54:01;4.67;;;2.10;;
6195;SDS011;3131;42.630;23.382;2023-04-16T13:56:31;4.13;;;2.33;;
6195;SDS011;3131;42.630;23.382;2023-04-16T13:59:00;6.73;;;2.47;;
6195;SDS011;3131;42.630;23.382;2023-04-16T14:01:30;5.73;;;2.50;;
6195;SDS011;3131;42.630;23.382;2023-04-16T14:04:00;4.33;;;2.33;;
6195;SDS011;3131;42.630;23.382;2023-04-16T14:06:31;3.60;;;2.10;;
6195;SDS011;3131;42.630;23.382;2023-04-16T14:09:01;6.43;;;2.23;;
6195;SDS011;3131;42.630;23.382;2023-04-16T14:11:30;6.90;;;3.40;;
6195;SDS011;3131;42.630;23.382;2023-04-16T14:14:00;5.00;;;2.63;;
6195;SDS011;3131;42.630;23.382;2023-04-16T14:16:29;4.23;;;2.50;;
6195;SDS011;3131;42.630;23.382;2023-04-16T14:18:59;5.07;;;2.47;;
6195;SDS011;3131;42.630;23.382;2023-04-16T14:21:28;6.03;;;2.40;;
6195;SDS011;3131;42.630;23.382;2023-04-16T14:23:58;6.47;;;2.60;;
6195;SDS011;3131;42.630;23.382;2023-04-16T14:26:28;6.90;;;4.00;;
6195;SDS011;3131;42.630;23.382;2023-04-16T14:28:57;5.97;;;2.57;;
6195;SDS011;3131;42.630;23.382;2023-04-16T14:31:27;6.83;;;2.97;;
6195;SDS011;3131;42.630;23.382;2023-04-16T14:33:57;4.73;;;2.73;;
6195;SDS011;3131;42.630;23.382;2023-04-16T14:36:27;3.87;;;2.37;;
6195;SDS011;3131;42.630;23.382;2023-04-16T14:38:57;5.30;;;2.97;;
6195;SDS011;3131;42.630;23.382;2023-04-16T14:41:27;3.60;;;2.73;;
6195;SDS011;3131;42.630;23.382;2023-04-16T14:43:57;6.53;;;2.80;;
6195;SDS011;3131;42.630;23.382;2023-04-16T14:46:26;6.33;;;2.87;;
6195;SDS011;3131;42.630;23.382;2023-04-16T14:48:57;6.00;;;2.60;;
6195;SDS011;3131;42.630;23.382;2023-04-16T14:51:27;6.13;;;3.07;;
6195;SDS011;3131;42.630;23.382;2023-04-16T14:53:56;6.00;;;3.47;;
6195;SDS011;3131;42.630;23.382;2023-04-16T14:56:26;7.33;;;3.47;;
6195;SDS011;3131;42.630;23.382;2023-04-16T14:58:55;5.63;;;3.00;;
6195;SDS011;3131;42.630;23.382;2023-04-16T15:01:25;6.10;;;2.80;;
6195;SDS011;3131;42.630;23.382;2023-04-16T15:03:54;4.73;;;3.00;;
6195;SDS011;3131;42.630;23.382;2023-04-16T15:06:24;5.80;;;2.57;;
6195;SDS011;3131;42.630;23.382;2023-04-16T15:08:54;5.60;;;2.67;;
6195;SDS011;3131;42.630;23.382;2023-04-16T15:11:24;4.30;;;2.63;;
6195;SDS011;3131;42.630;23.382;2023-04-16T15:13:53;8.77;;;2.80;;
6195;SDS011;3131;42.630;23.382;2023-04-16T15:16:23;3.67;;;2.60;;
6195;SDS011;3131;42.630;23.382;2023-04-16T15:18:53;3.40;;;2.53;;
6195;SDS011;3131;42.630;23.382;2023-04-16T15:21:22;4.53;;;2.70;;
6195;SDS011;3131;42.630;23.382;2023-04-16T15:23:53;5.47;;;2.67;;
6195;SDS011;3131;42.630;23.382;2023-04-16T15:26:22;5.57;;;2.97;;
6195;SDS011;3131;42.630;23.382;2023-04-16T15:28:52;5.37;;;2.97;;
6195;SDS011;3131;42.630;23.382;2023-04-16T15:31:21;6.33;;;3.30;;
6195;SDS011;3131;42.630;23.382;2023-04-16T15:33:51;4.93;;;3.00;;
6195;SDS011;3131;42.630;23.382;2023-04-16T15:36:21;6.93;;;3.13;;
6195;SDS011;3131;42.630;23.382;2023-04-16T15:38:52;6.03;;;2.53;;
6195;SDS011;3131;42.630;23.382;2023-04-16T15:41:21;5.13;;;2.80;;
6195;SDS011;3131;42.630;23.382;2023-04-16T15:43:51;3.80;;;2.50;;
6195;SDS011;3131;42.630;23.382;2023-04-16T15:46:20;4.10;;;2.87;;
6195;SDS011;3131;42.630;23.382;2023-04-16T15:48:50;3.53;;;2.30;;
6195;SDS011;3131;42.630;23.382;2023-04-16T15:51:19;4.53;;;3.30;;
6195;SDS011;3131;42.630;23.382;2023-04-16T15:53:48;5.10;;;3.07;;